| |
Missouri Department of Transportation

Social Media Facebook Twitter Flickr Blog YouTube RSS

Current AWOS Information

 
AWOS Home - General Info for all Airports
Current AWOS for all Airports - Current METAR for all Airports
Glossary - Disclaimer - Other Links


MEXICO--MEXICO MEMORIAL--KMYJ
 
Recent AWOS History
 
10/20/14     03:12 AM CDT      08:12 GMT
Air Temperature 55°F (13°C ) 1st Cloud Layer Clear
Dew Point 54°F (12°C) 2nd Cloud Layer  
Barometric Pressure 29.98 in Hg. 3rd Cloud Layer  
Wind Speed 7 mph (6 knots) Density Altitude  
Peak Wind Gusts   Variable Wind Directions  
Wind Direction Quadrant(220°) Variable Visibility  
Visibility 10 statute miles  

Thunderstorm and Precipitation Identification: 
Thunderstorm Remarks: 

Current METAR Record: METAR KMYJ 200759Z AUTO 22006KT 10SM CLR 13/12 A2999 RMK AO2

 

 

 

About Us
How Do I...
Contact Us
Missouri Department of Transportation
Central Office
105 W. Capitol Avenue
Jefferson City, MO 65102
1-888-ASK-MODOT (275-6636)
1-866-831-6277 (Motor Carrier Services)
Drivers License Offices
horz_bar
| | |
Missouri State Government
© 2013 Missouri Department of Transportation. All Rights Reserved.   Privacy Policy.
 
 
 
 
RSS FeedYoutubeBlogFlickrTwitter Facebook